City Of Cleveland — WDC2358 — position and weather

sailwx.info

Track history (hours):
 
Tides and Currents Weather Stations Pressure Air Temp Water Temp Dewpoint Dewpoint Depression Visibility Wind Speed Wind Dir Waves Ship Positions

City Of Cleveland

Owner: JANTRAN, INC., ROSEDALE, MS. More information available from US FCC via Universal Licensing System and Coast Guard Vessel Documentation Center.

Last reported at 2014-Sep-27 18:32 UTC. Time now 2014-Oct-21 00:38 UTC.
Position N 30°02' W 090°50'.
Warning: this ship's position is 23 days out of date.

Length 42 m; draft 12.5 m.

Type: Towing. MMSI: 366991810.

Date/timePositionNaut miles runAvg speedWind from/ knotsBaromVisibWave heightAir tempDewpointWater temp
2014-Sep-27 18:32N 30°02' W 090°50'3 2.7
2014-Sep-27 17:26N 29°60' W 090°48'3 2.5
2014-Sep-27 16:20N 30°01' W 090°45'5 1.5
2014-Sep-27 13:11N 30°03' W 090°40'0 0.0
2014-Sep-27 12:33N 30°03' W 090°40'2 1.7
2014-Sep-27 11:33N 30°02' W 090°38'5 5.0
2014-Sep-27 10:33N 30°03' W 090°32'2 1.6
2014-Sep-27 09:34N 30°03' W 090°30'0 0.0
2014-Sep-27 08:34N 30°03' W 090°30'0 0.0
2014-Sep-27 07:33N 30°03' W 090°30'0 0.0
2014-Sep-27 06:33N 30°03' W 090°30'0 0.1
2014-Sep-27 05:33N 30°03' W 090°30'0 0.1
2014-Sep-27 04:33N 30°03' W 090°30'0 0.0
2014-Sep-27 03:33N 30°03' W 090°30'0 0.0
2014-Sep-27 02:33N 30°03' W 090°30'0 0.0
2014-Sep-27 01:34N 30°03' W 090°30'0 0.0
2014-Sep-27 00:33N 30°03' W 090°30'0 0.0
2014-Sep-26 23:34N 30°03' W 090°30'0 0.0
2014-Sep-26 22:33N 30°03' W 090°30'0 0.0
2014-Sep-26 21:33N 30°03' W 090°30'0 0.0
2014-Sep-26 20:33N 30°03' W 090°30'0 0.0
2014-Sep-26 19:32N 30°03' W 090°30'0 0.0
2014-Sep-26 18:34N 30°03' W 090°30'0 0.0
2014-Sep-26 17:33N 30°03' W 090°30'0 0.0
2014-Sep-26 16:33N 30°03' W 090°30'0 0.0
2014-Sep-26 15:33N 30°03' W 090°30'0 0.0
2014-Sep-26 14:34N 30°03' W 090°30'0 0.0
2014-Sep-26 13:34N 30°03' W 090°30'2 2.1
2014-Sep-26 12:33N 30°02' W 090°28'1 0.5
2014-Sep-26 11:34N 30°01' W 090°28'0 0.0
2014-Sep-26 10:33N 30°01' W 090°28'0 0.1
2014-Sep-26 09:33N 30°01' W 090°28'3 2.6
2014-Sep-26 08:33N 29°60' W 090°26'4 3.5
2014-Sep-26 07:33N 29°57' W 090°23'1 0.6
2014-Sep-26 06:33N 29°57' W 090°23'0 0.3
2014-Sep-26 05:33N 29°56' W 090°22'2 2.4
2014-Sep-26 04:33N 29°56' W 090°20'0 0.0
2014-Sep-26 03:34N 29°56' W 090°20'0 0.0
2014-Sep-26 02:33N 29°56' W 090°20'0 0.0
2014-Sep-26 01:33N 29°56' W 090°20'0 0.0
2014-Sep-26 00:33N 29°56' W 090°20'0 0.0
2014-Sep-25 23:33N 29°56' W 090°20'0 0.0
2014-Sep-25 22:33N 29°56' W 090°20'0 0.0
2014-Sep-25 12:33N 29°56' W 090°20'0 0.0
2014-Sep-25 11:33N 29°56' W 090°20'0 0.0
2014-Sep-25 10:33N 29°56' W 090°20'0 0.0
2014-Sep-25 09:33N 29°56' W 090°20'1 0.9
2014-Sep-25 08:30N 29°57' W 090°19'3 3.0
2014-Sep-25 07:32N 29°58' W 090°16'4 0.9
2014-Sep-25 03:25N 29°56' W 090°19'1 1.1
2014-Sep-25 02:31N 29°56' W 090°21'0 0.1
2014-Sep-25 01:34N 29°56' W 090°21'0 0.0
2014-Sep-25 00:33N 29°56' W 090°20'0 0.1
2014-Sep-24 23:32N 29°56' W 090°20'13 1.1
2014-Sep-24 12:33N 30°03' W 090°33'5 5.4
2014-Sep-24 11:34N 30°03' W 090°39'6 6.0
2014-Sep-24 10:33N 30°01' W 090°45'4 4.1
2014-Sep-24 09:33N 30°01' W 090°50'12 1.9
2014-Sep-24 03:23N 30°08' W 091°01'  
Track history (hours):
 
Tides and Currents Weather Stations Pressure Air Temp Water Temp Dewpoint Dewpoint Depression Visibility Wind Speed Wind Dir Waves Ship Positions

City Of Cleveland

Owner: JANTRAN, INC., ROSEDALE, MS. More information available from US FCC via Universal Licensing System and Coast Guard Vessel Documentation Center.

Last reported at 2014-Sep-27 18:32 UTC. Time now 2014-Oct-21 00:38 UTC.
Position N 30°02' W 090°50'.
Warning: this ship's position is 23 days out of date.

Length 42 m; draft 12.5 m.

Type: Towing. MMSI: 366991810.

Date/timePositionNaut miles runAvg speedWind from/ knotsBaromVisibWave heightAir tempDewpointWater temp
2014-Sep-27 18:32N 30°02' W 090°50'3 2.7
2014-Sep-27 17:26N 29°60' W 090°48'3 2.5
2014-Sep-27 16:20N 30°01' W 090°45'5 1.5
2014-Sep-27 13:11N 30°03' W 090°40'0 0.0
2014-Sep-27 12:33N 30°03' W 090°40'2 1.7
2014-Sep-27 11:33N 30°02' W 090°38'5 5.0
2014-Sep-27 10:33N 30°03' W 090°32'2 1.6
2014-Sep-27 09:34N 30°03' W 090°30'0 0.0
2014-Sep-27 08:34N 30°03' W 090°30'0 0.0
2014-Sep-27 07:33N 30°03' W 090°30'0 0.0
2014-Sep-27 06:33N 30°03' W 090°30'0 0.1
2014-Sep-27 05:33N 30°03' W 090°30'0 0.1
2014-Sep-27 04:33N 30°03' W 090°30'0 0.0
2014-Sep-27 03:33N 30°03' W 090°30'0 0.0
2014-Sep-27 02:33N 30°03' W 090°30'0 0.0
2014-Sep-27 01:34N 30°03' W 090°30'0 0.0
2014-Sep-27 00:33N 30°03' W 090°30'0 0.0
2014-Sep-26 23:34N 30°03' W 090°30'0 0.0
2014-Sep-26 22:33N 30°03' W 090°30'0 0.0
2014-Sep-26 21:33N 30°03' W 090°30'0 0.0
2014-Sep-26 20:33N 30°03' W 090°30'0 0.0
2014-Sep-26 19:32N 30°03' W 090°30'0 0.0
2014-Sep-26 18:34N 30°03' W 090°30'0 0.0
2014-Sep-26 17:33N 30°03' W 090°30'0 0.0
2014-Sep-26 16:33N 30°03' W 090°30'0 0.0
2014-Sep-26 15:33N 30°03' W 090°30'0 0.0
2014-Sep-26 14:34N 30°03' W 090°30'0 0.0
2014-Sep-26 13:34N 30°03' W 090°30'2 2.1
2014-Sep-26 12:33N 30°02' W 090°28'1 0.5
2014-Sep-26 11:34N 30°01' W 090°28'0 0.0
2014-Sep-26 10:33N 30°01' W 090°28'0 0.1
2014-Sep-26 09:33N 30°01' W 090°28'3 2.6
2014-Sep-26 08:33N 29°60' W 090°26'4 3.5
2014-Sep-26 07:33N 29°57' W 090°23'1 0.6
2014-Sep-26 06:33N 29°57' W 090°23'0 0.3
2014-Sep-26 05:33N 29°56' W 090°22'2 2.4
2014-Sep-26 04:33N 29°56' W 090°20'0 0.0
2014-Sep-26 03:34N 29°56' W 090°20'0 0.0
2014-Sep-26 02:33N 29°56' W 090°20'0 0.0
2014-Sep-26 01:33N 29°56' W 090°20'0 0.0
2014-Sep-26 00:33N 29°56' W 090°20'0 0.0
2014-Sep-25 23:33N 29°56' W 090°20'0 0.0
2014-Sep-25 22:33N 29°56' W 090°20'0 0.0
2014-Sep-25 12:33N 29°56' W 090°20'0 0.0
2014-Sep-25 11:33N 29°56' W 090°20'0 0.0
2014-Sep-25 10:33N 29°56' W 090°20'0 0.0
2014-Sep-25 09:33N 29°56' W 090°20'1 0.9
2014-Sep-25 08:30N 29°57' W 090°19'3 3.0
2014-Sep-25 07:32N 29°58' W 090°16'4 0.9
2014-Sep-25 03:25N 29°56' W 090°19'1 1.1
2014-Sep-25 02:31N 29°56' W 090°21'0 0.1
2014-Sep-25 01:34N 29°56' W 090°21'0 0.0
2014-Sep-25 00:33N 29°56' W 090°20'0 0.1
2014-Sep-24 23:32N 29°56' W 090°20'13 1.1
2014-Sep-24 12:33N 30°03' W 090°33'5 5.4
2014-Sep-24 11:34N 30°03' W 090°39'6 6.0
2014-Sep-24 10:33N 30°01' W 090°45'4 4.1
2014-Sep-24 09:33N 30°01' W 090°50'12 1.9
2014-Sep-24 03:23N 30°08' W 091°01'  

Dump ship's entire track history